sensor_id;sensor_type;location;lat;lon;timestamp;P1;durP1;ratioP1;P2;durP2;ratioP2
63280;SDS011;49406;51.044;3.766;2023-05-02T00:01:38;13.10;;;6.80;;
63280;SDS011;49406;51.044;3.766;2023-05-02T00:04:13;22.40;;;8.10;;
63280;SDS011;49406;51.044;3.766;2023-05-02T00:06:48;9.30;;;8.40;;
63280;SDS011;49406;51.044;3.766;2023-05-02T00:09:22;39.30;;;11.90;;
63280;SDS011;49406;51.044;3.766;2023-05-02T00:11:57;13.70;;;6.90;;
63280;SDS011;49406;51.044;3.766;2023-05-02T00:14:32;42.70;;;10.20;;
63280;SDS011;49406;51.044;3.766;2023-05-02T00:17:07;14.80;;;7.40;;
63280;SDS011;49406;51.044;3.766;2023-05-02T00:19:47;16.90;;;7.10;;
63280;SDS011;49406;51.044;3.766;2023-05-02T00:22:22;44.30;;;11.10;;
63280;SDS011;49406;51.044;3.766;2023-05-02T00:24:56;16.80;;;6.70;;
63280;SDS011;49406;51.044;3.766;2023-05-02T00:27:31;19.10;;;9.00;;
63280;SDS011;49406;51.044;3.766;2023-05-02T00:30:06;21.20;;;8.50;;
63280;SDS011;49406;51.044;3.766;2023-05-02T00:32:42;21.60;;;10.40;;
63280;SDS011;49406;51.044;3.766;2023-05-02T00:35:16;17.80;;;5.30;;
63280;SDS011;49406;51.044;3.766;2023-05-02T00:37:51;25.00;;;11.10;;
63280;SDS011;49406;51.044;3.766;2023-05-02T00:40:25;24.00;;;8.60;;
63280;SDS011;49406;51.044;3.766;2023-05-02T00:42:59;26.00;;;9.40;;
63280;SDS011;49406;51.044;3.766;2023-05-02T00:45:34;22.20;;;9.00;;
63280;SDS011;49406;51.044;3.766;2023-05-02T00:48:11;18.40;;;8.70;;
63280;SDS011;49406;51.044;3.766;2023-05-02T00:50:48;21.60;;;11.80;;
63280;SDS011;49406;51.044;3.766;2023-05-02T00:53:22;3.40;;;1.60;;
63280;SDS011;49406;51.044;3.766;2023-05-02T00:55:57;24.90;;;8.90;;
63280;SDS011;49406;51.044;3.766;2023-05-02T00:58:33;16.90;;;6.00;;
63280;SDS011;49406;51.044;3.766;2023-05-02T01:01:11;18.90;;;8.60;;
63280;SDS011;49406;51.044;3.766;2023-05-02T01:04:07;30.70;;;7.80;;
63280;SDS011;49406;51.044;3.766;2023-05-02T01:06:57;16.80;;;6.80;;
63280;SDS011;49406;51.044;3.766;2023-05-02T01:09:44;30.50;;;9.70;;
63280;SDS011;49406;51.044;3.766;2023-05-02T01:12:34;26.70;;;9.50;;
63280;SDS011;49406;51.044;3.766;2023-05-02T01:15:15;39.90;;;15.10;;
63280;SDS011;49406;51.044;3.766;2023-05-02T01:17:52;22.30;;;11.10;;
63280;SDS011;49406;51.044;3.766;2023-05-02T01:20:29;23.80;;;11.20;;
63280;SDS011;49406;51.044;3.766;2023-05-02T01:23:08;24.60;;;10.60;;
63280;SDS011;49406;51.044;3.766;2023-05-02T01:25:51;21.80;;;10.70;;
63280;SDS011;49406;51.044;3.766;2023-05-02T01:31:23;30.00;;;8.90;;
63280;SDS011;49406;51.044;3.766;2023-05-02T01:34:00;29.00;;;13.70;;
63280;SDS011;49406;51.044;3.766;2023-05-02T01:36:37;29.00;;;12.50;;
63280;SDS011;49406;51.044;3.766;2023-05-02T01:39:17;23.90;;;11.10;;
63280;SDS011;49406;51.044;3.766;2023-05-02T01:41:54;26.90;;;11.10;;
63280;SDS011;49406;51.044;3.766;2023-05-02T01:44:30;16.50;;;7.30;;
63280;SDS011;49406;51.044;3.766;2023-05-02T01:47:07;24.80;;;11.70;;
63280;SDS011;49406;51.044;3.766;2023-05-02T01:49:43;20.30;;;7.30;;
63280;SDS011;49406;51.044;3.766;2023-05-02T01:52:19;21.30;;;12.10;;
63280;SDS011;49406;51.044;3.766;2023-05-02T01:54:55;15.50;;;4.70;;
63280;SDS011;49406;51.044;3.766;2023-05-02T01:57:31;15.50;;;8.60;;
63280;SDS011;49406;51.044;3.766;2023-05-02T02:00:07;29.00;;;9.80;;
63280;SDS011;49406;51.044;3.766;2023-05-02T02:02:44;27.00;;;10.10;;
63280;SDS011;49406;51.044;3.766;2023-05-02T02:05:20;21.80;;;8.60;;
63280;SDS011;49406;51.044;3.766;2023-05-02T02:07:56;11.90;;;6.10;;
63280;SDS011;49406;51.044;3.766;2023-05-02T02:10:30;17.20;;;6.90;;
63280;SDS011;49406;51.044;3.766;2023-05-02T02:13:11;23.00;;;8.50;;
63280;SDS011;49406;51.044;3.766;2023-05-02T02:15:49;27.70;;;9.90;;
63280;SDS011;49406;51.044;3.766;2023-05-02T02:18:28;26.80;;;9.70;;
63280;SDS011;49406;51.044;3.766;2023-05-02T02:21:08;20.80;;;8.20;;
63280;SDS011;49406;51.044;3.766;2023-05-02T02:23:43;24.10;;;7.80;;
63280;SDS011;49406;51.044;3.766;2023-05-02T02:26:22;23.50;;;11.00;;
63280;SDS011;49406;51.044;3.766;2023-05-02T02:28:57;18.90;;;7.80;;
63280;SDS011;49406;51.044;3.766;2023-05-02T02:31:33;17.30;;;8.10;;
63280;SDS011;49406;51.044;3.766;2023-05-02T02:34:09;17.30;;;8.50;;
63280;SDS011;49406;51.044;3.766;2023-05-02T02:36:46;15.10;;;7.50;;
63280;SDS011;49406;51.044;3.766;2023-05-02T02:42:09;19.70;;;8.80;;
63280;SDS011;49406;51.044;3.766;2023-05-02T02:44:50;19.40;;;8.90;;
63280;SDS011;49406;51.044;3.766;2023-05-02T02:47:34;22.50;;;8.10;;
63280;SDS011;49406;51.044;3.766;2023-05-02T02:50:15;22.20;;;7.40;;
63280;SDS011;49406;51.044;3.766;2023-05-02T02:52:56;29.50;;;9.30;;
63280;SDS011;49406;51.044;3.766;2023-05-02T02:55:37;16.70;;;6.40;;
63280;SDS011;49406;51.044;3.766;2023-05-02T02:58:20;18.90;;;7.80;;
63280;SDS011;49406;51.044;3.766;2023-05-02T03:01:04;15.90;;;7.80;;
63280;SDS011;49406;51.044;3.766;2023-05-02T03:03:43;22.00;;;9.30;;
63280;SDS011;49406;51.044;3.766;2023-05-02T03:06:19;14.70;;;7.00;;
63280;SDS011;49406;51.044;3.766;2023-05-02T03:08:55;16.10;;;5.20;;
63280;SDS011;49406;51.044;3.766;2023-05-02T03:11:30;19.40;;;8.50;;
63280;SDS011;49406;51.044;3.766;2023-05-02T03:14:04;24.60;;;7.80;;
63280;SDS011;49406;51.044;3.766;2023-05-02T03:16:39;12.80;;;7.20;;
63280;SDS011;49406;51.044;3.766;2023-05-02T03:19:13;21.70;;;9.30;;
63280;SDS011;49406;51.044;3.766;2023-05-02T03:21:48;18.20;;;7.80;;
63280;SDS011;49406;51.044;3.766;2023-05-02T03:24:22;11.30;;;6.70;;
63280;SDS011;49406;51.044;3.766;2023-05-02T03:26:58;13.50;;;7.30;;
63280;SDS011;49406;51.044;3.766;2023-05-02T03:29:32;20.30;;;9.30;;
63280;SDS011;49406;51.044;3.766;2023-05-02T03:32:07;18.80;;;8.40;;
63280;SDS011;49406;51.044;3.766;2023-05-02T03:34:41;11.80;;;7.70;;
63280;SDS011;49406;51.044;3.766;2023-05-02T03:37:16;18.50;;;8.70;;
63280;SDS011;49406;51.044;3.766;2023-05-02T03:39:50;23.80;;;9.10;;
63280;SDS011;49406;51.044;3.766;2023-05-02T03:42:25;16.60;;;5.90;;
63280;SDS011;49406;51.044;3.766;2023-05-02T03:44:59;19.00;;;7.00;;
63280;SDS011;49406;51.044;3.766;2023-05-02T03:47:33;6.80;;;4.40;;
63280;SDS011;49406;51.044;3.766;2023-05-02T03:50:08;15.80;;;7.60;;
63280;SDS011;49406;51.044;3.766;2023-05-02T03:52:43;9.00;;;4.10;;
63280;SDS011;49406;51.044;3.766;2023-05-02T03:55:18;22.00;;;8.60;;
63280;SDS011;49406;51.044;3.766;2023-05-02T03:57:52;14.70;;;8.20;;
63280;SDS011;49406;51.044;3.766;2023-05-02T04:00:27;16.60;;;7.70;;
63280;SDS011;49406;51.044;3.766;2023-05-02T04:03:02;14.50;;;6.00;;
63280;SDS011;49406;51.044;3.766;2023-05-02T04:05:37;27.10;;;10.00;;
63280;SDS011;49406;51.044;3.766;2023-05-02T04:08:11;20.30;;;8.20;;
63280;SDS011;49406;51.044;3.766;2023-05-02T04:10:46;18.60;;;8.80;;
63280;SDS011;49406;51.044;3.766;2023-05-02T04:13:21;6.80;;;3.50;;
63280;SDS011;49406;51.044;3.766;2023-05-02T04:15:56;8.50;;;4.80;;
63280;SDS011;49406;51.044;3.766;2023-05-02T04:18:30;11.50;;;6.50;;
63280;SDS011;49406;51.044;3.766;2023-05-02T04:21:06;18.20;;;8.20;;
63280;SDS011;49406;51.044;3.766;2023-05-02T04:23:41;30.00;;;6.90;;
63280;SDS011;49406;51.044;3.766;2023-05-02T04:26:15;16.90;;;6.60;;
63280;SDS011;49406;51.044;3.766;2023-05-02T04:28:49;24.60;;;7.70;;
63280;SDS011;49406;51.044;3.766;2023-05-02T04:31:24;11.80;;;7.20;;
63280;SDS011;49406;51.044;3.766;2023-05-02T04:33:58;7.40;;;3.90;;
63280;SDS011;49406;51.044;3.766;2023-05-02T04:36:34;8.10;;;3.70;;
63280;SDS011;49406;51.044;3.766;2023-05-02T04:39:09;13.20;;;5.00;;
63280;SDS011;49406;51.044;3.766;2023-05-02T04:41:43;13.60;;;6.80;;
63280;SDS011;49406;51.044;3.766;2023-05-02T04:44:17;19.70;;;5.20;;
63280;SDS011;49406;51.044;3.766;2023-05-02T04:46:52;17.70;;;9.70;;
63280;SDS011;49406;51.044;3.766;2023-05-02T04:49:26;12.90;;;5.70;;
63280;SDS011;49406;51.044;3.766;2023-05-02T04:52:01;13.60;;;6.20;;
63280;SDS011;49406;51.044;3.766;2023-05-02T04:54:36;15.80;;;4.70;;
63280;SDS011;49406;51.044;3.766;2023-05-02T04:57:10;16.70;;;4.50;;
63280;SDS011;49406;51.044;3.766;2023-05-02T04:59:45;22.20;;;7.80;;
63280;SDS011;49406;51.044;3.766;2023-05-02T05:02:19;11.50;;;5.70;;
63280;SDS011;49406;51.044;3.766;2023-05-02T05:04:53;6.80;;;4.40;;
63280;SDS011;49406;51.044;3.766;2023-05-02T05:07:28;14.60;;;3.70;;
63280;SDS011;49406;51.044;3.766;2023-05-02T05:10:02;14.90;;;5.70;;
63280;SDS011;49406;51.044;3.766;2023-05-02T05:12:38;8.60;;;6.20;;
63280;SDS011;49406;51.044;3.766;2023-05-02T05:15:13;7.50;;;2.70;;
63280;SDS011;49406;51.044;3.766;2023-05-02T05:17:47;5.00;;;3.20;;
63280;SDS011;49406;51.044;3.766;2023-05-02T05:22:54;9.10;;;2.90;;
63280;SDS011;49406;51.044;3.766;2023-05-02T05:25:29;3.80;;;2.50;;
63280;SDS011;49406;51.044;3.766;2023-05-02T05:28:04;8.00;;;2.60;;
63280;SDS011;49406;51.044;3.766;2023-05-02T05:30:38;8.10;;;2.40;;
63280;SDS011;49406;51.044;3.766;2023-05-02T05:33:13;9.10;;;1.30;;
63280;SDS011;49406;51.044;3.766;2023-05-02T05:35:47;4.00;;;2.10;;
63280;SDS011;49406;51.044;3.766;2023-05-02T05:38:22;5.60;;;1.50;;
63280;SDS011;49406;51.044;3.766;2023-05-02T05:43:29;3.70;;;2.20;;
63280;SDS011;49406;51.044;3.766;2023-05-02T05:48:37;2.30;;;1.40;;
63280;SDS011;49406;51.044;3.766;2023-05-02T05:51:11;2.50;;;1.10;;
63280;SDS011;49406;51.044;3.766;2023-05-02T05:53:46;9.90;;;4.00;;
63280;SDS011;49406;51.044;3.766;2023-05-02T05:56:20;7.10;;;3.60;;
63280;SDS011;49406;51.044;3.766;2023-05-02T05:58:54;5.40;;;2.60;;
63280;SDS011;49406;51.044;3.766;2023-05-02T06:01:29;8.90;;;3.00;;
63280;SDS011;49406;51.044;3.766;2023-05-02T06:04:04;12.10;;;4.50;;
63280;SDS011;49406;51.044;3.766;2023-05-02T06:06:39;4.80;;;3.60;;
63280;SDS011;49406;51.044;3.766;2023-05-02T06:09:14;4.90;;;3.00;;
63280;SDS011;49406;51.044;3.766;2023-05-02T06:11:48;13.70;;;4.60;;
63280;SDS011;49406;51.044;3.766;2023-05-02T06:14:22;4.90;;;2.10;;
63280;SDS011;49406;51.044;3.766;2023-05-02T06:16:58;4.80;;;2.10;;
63280;SDS011;49406;51.044;3.766;2023-05-02T06:19:33;8.30;;;2.20;;
63280;SDS011;49406;51.044;3.766;2023-05-02T06:22:10;2.80;;;1.30;;
63280;SDS011;49406;51.044;3.766;2023-05-02T06:24:44;14.30;;;3.50;;
63280;SDS011;49406;51.044;3.766;2023-05-02T06:27:19;4.00;;;1.30;;
63280;SDS011;49406;51.044;3.766;2023-05-02T06:29:53;7.60;;;1.80;;
63280;SDS011;49406;51.044;3.766;2023-05-02T06:32:30;8.70;;;2.50;;
63280;SDS011;49406;51.044;3.766;2023-05-02T06:35:05;4.60;;;2.30;;
63280;SDS011;49406;51.044;3.766;2023-05-02T06:37:40;11.00;;;4.70;;
63280;SDS011;49406;51.044;3.766;2023-05-02T06:40:15;3.90;;;2.50;;
63280;SDS011;49406;51.044;3.766;2023-05-02T06:42:49;4.30;;;2.40;;
63280;SDS011;49406;51.044;3.766;2023-05-02T06:45:24;4.30;;;2.20;;
63280;SDS011;49406;51.044;3.766;2023-05-02T06:50:31;2.40;;;1.50;;
63280;SDS011;49406;51.044;3.766;2023-05-02T06:53:05;7.10;;;1.30;;
63280;SDS011;49406;51.044;3.766;2023-05-02T06:55:40;2.90;;;0.90;;
63280;SDS011;49406;51.044;3.766;2023-05-02T06:58:15;9.10;;;1.90;;
63280;SDS011;49406;51.044;3.766;2023-05-02T07:00:50;5.50;;;1.50;;
63280;SDS011;49406;51.044;3.766;2023-05-02T07:03:24;4.00;;;2.20;;
63280;SDS011;49406;51.044;3.766;2023-05-02T07:05:58;2.30;;;1.20;;
63280;SDS011;49406;51.044;3.766;2023-05-02T07:08:33;3.20;;;1.30;;
63280;SDS011;49406;51.044;3.766;2023-05-02T07:11:07;6.90;;;2.00;;
63280;SDS011;49406;51.044;3.766;2023-05-02T07:13:42;3.30;;;1.10;;
63280;SDS011;49406;51.044;3.766;2023-05-02T07:16:16;3.70;;;1.30;;
63280;SDS011;49406;51.044;3.766;2023-05-02T07:18:51;2.60;;;1.50;;
63280;SDS011;49406;51.044;3.766;2023-05-02T07:21:25;4.60;;;1.50;;
63280;SDS011;49406;51.044;3.766;2023-05-02T07:24:00;1.70;;;1.00;;
63280;SDS011;49406;51.044;3.766;2023-05-02T07:26:34;1.90;;;1.20;;
63280;SDS011;49406;51.044;3.766;2023-05-02T07:29:09;3.10;;;1.90;;
63280;SDS011;49406;51.044;3.766;2023-05-02T07:31:43;6.20;;;1.70;;
63280;SDS011;49406;51.044;3.766;2023-05-02T07:34:17;3.30;;;1.40;;
63280;SDS011;49406;51.044;3.766;2023-05-02T07:36:52;4.00;;;1.90;;
63280;SDS011;49406;51.044;3.766;2023-05-02T07:39:26;2.00;;;1.50;;
63280;SDS011;49406;51.044;3.766;2023-05-02T07:42:01;3.70;;;1.50;;
63280;SDS011;49406;51.044;3.766;2023-05-02T07:44:37;3.30;;;1.50;;
63280;SDS011;49406;51.044;3.766;2023-05-02T07:47:11;5.40;;;0.70;;
63280;SDS011;49406;51.044;3.766;2023-05-02T07:49:49;10.20;;;2.60;;
63280;SDS011;49406;51.044;3.766;2023-05-02T07:52:24;7.10;;;2.90;;
63280;SDS011;49406;51.044;3.766;2023-05-02T07:54:59;2.70;;;1.80;;
63280;SDS011;49406;51.044;3.766;2023-05-02T08:00:07;2.10;;;1.30;;
63280;SDS011;49406;51.044;3.766;2023-05-02T08:02:42;4.30;;;2.40;;
63280;SDS011;49406;51.044;3.766;2023-05-02T08:05:17;10.30;;;3.80;;
63280;SDS011;49406;51.044;3.766;2023-05-02T08:07:52;13.40;;;4.60;;
63280;SDS011;49406;51.044;3.766;2023-05-02T08:10:26;14.00;;;5.90;;
63280;SDS011;49406;51.044;3.766;2023-05-02T08:13:01;6.50;;;2.80;;
63280;SDS011;49406;51.044;3.766;2023-05-02T08:15:35;3.30;;;2.20;;
63280;SDS011;49406;51.044;3.766;2023-05-02T08:18:10;4.90;;;3.00;;
63280;SDS011;49406;51.044;3.766;2023-05-02T08:20:44;6.20;;;2.00;;
63280;SDS011;49406;51.044;3.766;2023-05-02T08:23:21;2.90;;;1.70;;
63280;SDS011;49406;51.044;3.766;2023-05-02T08:25:55;4.40;;;2.70;;
63280;SDS011;49406;51.044;3.766;2023-05-02T08:28:29;1.20;;;0.90;;
63280;SDS011;49406;51.044;3.766;2023-05-02T08:31:04;6.30;;;1.80;;
63280;SDS011;49406;51.044;3.766;2023-05-02T08:33:38;6.30;;;2.50;;
63280;SDS011;49406;51.044;3.766;2023-05-02T08:36:14;3.90;;;2.30;;
63280;SDS011;49406;51.044;3.766;2023-05-02T08:38:49;5.10;;;4.40;;
63280;SDS011;49406;51.044;3.766;2023-05-02T08:41:24;4.70;;;2.70;;
63280;SDS011;49406;51.044;3.766;2023-05-02T08:44:00;5.70;;;4.30;;
63280;SDS011;49406;51.044;3.766;2023-05-02T08:46:39;4.60;;;2.80;;
63280;SDS011;49406;51.044;3.766;2023-05-02T08:49:15;7.60;;;4.00;;
63280;SDS011;49406;51.044;3.766;2023-05-02T08:51:51;4.90;;;3.40;;
63280;SDS011;49406;51.044;3.766;2023-05-02T08:54:26;5.80;;;4.20;;
63280;SDS011;49406;51.044;3.766;2023-05-02T08:57:01;4.70;;;3.40;;
63280;SDS011;49406;51.044;3.766;2023-05-02T08:59:37;5.60;;;2.40;;
63280;SDS011;49406;51.044;3.766;2023-05-02T09:02:16;3.10;;;2.50;;
63280;SDS011;49406;51.044;3.766;2023-05-02T09:04:56;6.40;;;3.20;;
63280;SDS011;49406;51.044;3.766;2023-05-02T09:07:44;5.50;;;3.00;;
63280;SDS011;49406;51.044;3.766;2023-05-02T09:10:20;6.60;;;2.50;;
63280;SDS011;49406;51.044;3.766;2023-05-02T09:12:57;10.50;;;3.70;;
63280;SDS011;49406;51.044;3.766;2023-05-02T09:16:01;7.20;;;4.10;;
63280;SDS011;49406;51.044;3.766;2023-05-02T09:18:37;5.90;;;3.60;;
63280;SDS011;49406;51.044;3.766;2023-05-02T09:21:13;6.10;;;4.30;;
63280;SDS011;49406;51.044;3.766;2023-05-02T09:23:49;5.50;;;3.00;;
63280;SDS011;49406;51.044;3.766;2023-05-02T09:26:25;7.00;;;3.90;;
63280;SDS011;49406;51.044;3.766;2023-05-02T09:31:35;8.70;;;5.70;;
63280;SDS011;49406;51.044;3.766;2023-05-02T09:34:12;9.00;;;3.00;;
63280;SDS011;49406;51.044;3.766;2023-05-02T09:36:49;6.60;;;2.90;;
63280;SDS011;49406;51.044;3.766;2023-05-02T09:39:24;8.40;;;3.80;;
63280;SDS011;49406;51.044;3.766;2023-05-02T09:42:00;6.20;;;3.70;;
63280;SDS011;49406;51.044;3.766;2023-05-02T09:44:38;10.40;;;3.10;;
63280;SDS011;49406;51.044;3.766;2023-05-02T09:47:13;7.40;;;5.40;;
63280;SDS011;49406;51.044;3.766;2023-05-02T09:49:58;7.40;;;3.70;;
63280;SDS011;49406;51.044;3.766;2023-05-02T09:52:32;1.80;;;1.20;;
63280;SDS011;49406;51.044;3.766;2023-05-02T09:55:17;2.30;;;1.20;;
63280;SDS011;49406;51.044;3.766;2023-05-02T10:00:38;5.40;;;2.70;;
63280;SDS011;49406;51.044;3.766;2023-05-02T10:03:15;3.00;;;1.70;;
63280;SDS011;49406;51.044;3.766;2023-05-02T10:05:50;5.00;;;2.00;;
63280;SDS011;49406;51.044;3.766;2023-05-02T10:08:26;3.60;;;2.80;;
63280;SDS011;49406;51.044;3.766;2023-05-02T10:11:01;3.10;;;2.70;;
63280;SDS011;49406;51.044;3.766;2023-05-02T10:13:39;2.50;;;2.20;;
63280;SDS011;49406;51.044;3.766;2023-05-02T10:16:15;2.80;;;1.70;;
63280;SDS011;49406;51.044;3.766;2023-05-02T10:19:01;9.20;;;2.70;;
63280;SDS011;49406;51.044;3.766;2023-05-02T10:21:39;10.10;;;2.90;;
63280;SDS011;49406;51.044;3.766;2023-05-02T10:24:15;2.10;;;2.00;;
63280;SDS011;49406;51.044;3.766;2023-05-02T10:26:50;5.70;;;4.30;;
63280;SDS011;49406;51.044;3.766;2023-05-02T10:29:27;11.10;;;5.00;;
63280;SDS011;49406;51.044;3.766;2023-05-02T10:32:03;14.60;;;3.70;;
63280;SDS011;49406;51.044;3.766;2023-05-02T10:34:39;6.10;;;2.70;;
63280;SDS011;49406;51.044;3.766;2023-05-02T10:37:13;5.80;;;3.90;;
63280;SDS011;49406;51.044;3.766;2023-05-02T10:39:49;3.50;;;2.60;;
63280;SDS011;49406;51.044;3.766;2023-05-02T10:42:23;5.60;;;3.20;;
63280;SDS011;49406;51.044;3.766;2023-05-02T10:45:00;5.80;;;2.80;;
63280;SDS011;49406;51.044;3.766;2023-05-02T10:47:35;5.70;;;2.30;;
63280;SDS011;49406;51.044;3.766;2023-05-02T10:50:10;5.80;;;3.10;;
63280;SDS011;49406;51.044;3.766;2023-05-02T10:52:44;5.10;;;3.80;;
63280;SDS011;49406;51.044;3.766;2023-05-02T10:55:19;2.60;;;1.80;;
63280;SDS011;49406;51.044;3.766;2023-05-02T11:00:55;3.90;;;2.50;;
63280;SDS011;49406;51.044;3.766;2023-05-02T11:04:12;8.10;;;4.10;;
63280;SDS011;49406;51.044;3.766;2023-05-02T11:09:52;4.30;;;2.50;;
63280;SDS011;49406;51.044;3.766;2023-05-02T11:12:47;4.40;;;2.00;;
63280;SDS011;49406;51.044;3.766;2023-05-02T11:18:34;3.40;;;2.40;;
63280;SDS011;49406;51.044;3.766;2023-05-02T11:21:31;4.30;;;2.60;;
63280;SDS011;49406;51.044;3.766;2023-05-02T11:30:11;5.30;;;3.60;;
63280;SDS011;49406;51.044;3.766;2023-05-02T11:35:50;4.20;;;3.50;;
63280;SDS011;49406;51.044;3.766;2023-05-02T11:38:34;4.20;;;2.40;;
63280;SDS011;49406;51.044;3.766;2023-05-02T11:41:09;7.20;;;2.60;;
63280;SDS011;49406;51.044;3.766;2023-05-02T11:43:44;6.50;;;3.60;;
63280;SDS011;49406;51.044;3.766;2023-05-02T11:48:51;2.70;;;2.20;;
63280;SDS011;49406;51.044;3.766;2023-05-02T11:51:25;8.80;;;2.70;;
63280;SDS011;49406;51.044;3.766;2023-05-02T11:54:00;6.90;;;2.80;;
63280;SDS011;49406;51.044;3.766;2023-05-02T11:56:35;1.40;;;1.00;;
63280;SDS011;49406;51.044;3.766;2023-05-02T11:59:09;4.30;;;3.20;;
63280;SDS011;49406;51.044;3.766;2023-05-02T12:01:50;2.30;;;2.00;;
63280;SDS011;49406;51.044;3.766;2023-05-02T12:04:26;4.50;;;1.90;;
63280;SDS011;49406;51.044;3.766;2023-05-02T12:07:00;6.50;;;2.80;;
63280;SDS011;49406;51.044;3.766;2023-05-02T12:09:35;3.90;;;2.70;;
63280;SDS011;49406;51.044;3.766;2023-05-02T12:12:21;3.90;;;1.70;;
63280;SDS011;49406;51.044;3.766;2023-05-02T12:14:56;5.60;;;3.10;;
63280;SDS011;49406;51.044;3.766;2023-05-02T12:17:30;4.50;;;2.10;;
63280;SDS011;49406;51.044;3.766;2023-05-02T12:20:06;3.40;;;2.00;;
63280;SDS011;49406;51.044;3.766;2023-05-02T12:22:42;4.60;;;2.30;;
63280;SDS011;49406;51.044;3.766;2023-05-02T12:25:18;7.00;;;2.90;;
63280;SDS011;49406;51.044;3.766;2023-05-02T12:27:59;9.70;;;2.20;;
63280;SDS011;49406;51.044;3.766;2023-05-02T12:30:35;4.20;;;2.00;;
63280;SDS011;49406;51.044;3.766;2023-05-02T12:33:11;4.30;;;3.00;;
63280;SDS011;49406;51.044;3.766;2023-05-02T12:35:47;5.00;;;1.80;;
63280;SDS011;49406;51.044;3.766;2023-05-02T12:38:22;10.30;;;3.30;;
63280;SDS011;49406;51.044;3.766;2023-05-02T12:40:57;2.70;;;2.40;;
63280;SDS011;49406;51.044;3.766;2023-05-02T12:46:17;5.90;;;5.20;;
63280;SDS011;49406;51.044;3.766;2023-05-02T12:49:01;1.20;;;0.80;;
63280;SDS011;49406;51.044;3.766;2023-05-02T12:51:37;5.40;;;2.90;;
63280;SDS011;49406;51.044;3.766;2023-05-02T12:54:19;5.10;;;2.50;;
63280;SDS011;49406;51.044;3.766;2023-05-02T12:56:54;5.00;;;2.80;;
63280;SDS011;49406;51.044;3.766;2023-05-02T12:59:29;2.20;;;2.00;;
63280;SDS011;49406;51.044;3.766;2023-05-02T13:02:04;9.60;;;3.30;;
63280;SDS011;49406;51.044;3.766;2023-05-02T13:04:39;3.50;;;2.00;;
63280;SDS011;49406;51.044;3.766;2023-05-02T13:07:14;4.70;;;2.50;;
63280;SDS011;49406;51.044;3.766;2023-05-02T13:12:21;6.20;;;2.70;;
63280;SDS011;49406;51.044;3.766;2023-05-02T13:14:55;3.80;;;1.80;;
63280;SDS011;49406;51.044;3.766;2023-05-02T13:17:30;9.50;;;2.50;;
63280;SDS011;49406;51.044;3.766;2023-05-02T13:20:05;4.00;;;1.50;;
63280;SDS011;49406;51.044;3.766;2023-05-02T13:22:41;2.70;;;2.00;;
63280;SDS011;49406;51.044;3.766;2023-05-02T13:25:15;2.80;;;1.60;;
63280;SDS011;49406;51.044;3.766;2023-05-02T13:27:49;2.50;;;1.90;;
63280;SDS011;49406;51.044;3.766;2023-05-02T13:30:24;4.30;;;1.90;;
63280;SDS011;49406;51.044;3.766;2023-05-02T13:32:58;4.50;;;2.70;;
63280;SDS011;49406;51.044;3.766;2023-05-02T13:35:33;3.20;;;1.80;;
63280;SDS011;49406;51.044;3.766;2023-05-02T13:38:07;2.60;;;1.10;;
63280;SDS011;49406;51.044;3.766;2023-05-02T13:40:42;1.70;;;1.10;;
63280;SDS011;49406;51.044;3.766;2023-05-02T13:43:16;5.70;;;2.50;;
63280;SDS011;49406;51.044;3.766;2023-05-02T13:45:51;3.20;;;2.00;;
63280;SDS011;49406;51.044;3.766;2023-05-02T13:48:25;6.30;;;2.20;;
63280;SDS011;49406;51.044;3.766;2023-05-02T13:51:00;3.20;;;2.30;;
63280;SDS011;49406;51.044;3.766;2023-05-02T13:53:35;4.00;;;1.40;;
63280;SDS011;49406;51.044;3.766;2023-05-02T13:56:09;7.70;;;3.30;;
63280;SDS011;49406;51.044;3.766;2023-05-02T13:58:44;5.50;;;2.10;;
63280;SDS011;49406;51.044;3.766;2023-05-02T14:01:18;7.80;;;3.70;;
63280;SDS011;49406;51.044;3.766;2023-05-02T14:03:52;3.70;;;1.50;;
63280;SDS011;49406;51.044;3.766;2023-05-02T14:06:27;4.00;;;2.10;;
63280;SDS011;49406;51.044;3.766;2023-05-02T14:09:02;4.10;;;2.30;;
63280;SDS011;49406;51.044;3.766;2023-05-02T14:11:37;4.20;;;2.50;;
63280;SDS011;49406;51.044;3.766;2023-05-02T14:14:12;5.40;;;0.90;;
63280;SDS011;49406;51.044;3.766;2023-05-02T14:16:46;4.60;;;1.10;;
63280;SDS011;49406;51.044;3.766;2023-05-02T14:19:21;5.70;;;1.80;;
63280;SDS011;49406;51.044;3.766;2023-05-02T14:21:56;4.90;;;2.40;;
63280;SDS011;49406;51.044;3.766;2023-05-02T14:24:30;3.20;;;1.60;;
63280;SDS011;49406;51.044;3.766;2023-05-02T14:27:05;15.10;;;2.70;;
63280;SDS011;49406;51.044;3.766;2023-05-02T14:29:43;5.30;;;1.50;;
63280;SDS011;49406;51.044;3.766;2023-05-02T14:32:17;4.30;;;1.50;;
63280;SDS011;49406;51.044;3.766;2023-05-02T14:34:52;4.10;;;1.10;;
63280;SDS011;49406;51.044;3.766;2023-05-02T14:37:26;2.30;;;1.60;;
63280;SDS011;49406;51.044;3.766;2023-05-02T14:40:01;4.70;;;2.30;;
63280;SDS011;49406;51.044;3.766;2023-05-02T14:42:36;5.00;;;2.10;;
63280;SDS011;49406;51.044;3.766;2023-05-02T14:45:11;5.20;;;1.30;;
63280;SDS011;49406;51.044;3.766;2023-05-02T14:47:45;4.70;;;2.20;;
63280;SDS011;49406;51.044;3.766;2023-05-02T14:50:20;6.40;;;2.00;;
63280;SDS011;49406;51.044;3.766;2023-05-02T14:52:55;4.30;;;1.70;;
63280;SDS011;49406;51.044;3.766;2023-05-02T14:55:34;5.00;;;1.80;;
63280;SDS011;49406;51.044;3.766;2023-05-02T14:58:09;2.80;;;1.70;;
63280;SDS011;49406;51.044;3.766;2023-05-02T15:00:49;7.90;;;2.60;;
63280;SDS011;49406;51.044;3.766;2023-05-02T15:03:24;8.50;;;1.80;;
63280;SDS011;49406;51.044;3.766;2023-05-02T15:05:58;5.20;;;2.70;;
63280;SDS011;49406;51.044;3.766;2023-05-02T15:08:33;5.50;;;2.00;;
63280;SDS011;49406;51.044;3.766;2023-05-02T15:11:07;3.90;;;2.20;;
63280;SDS011;49406;51.044;3.766;2023-05-02T15:13:42;3.40;;;2.50;;
63280;SDS011;49406;51.044;3.766;2023-05-02T15:16:16;3.90;;;2.50;;
63280;SDS011;49406;51.044;3.766;2023-05-02T15:18:51;2.70;;;2.00;;
63280;SDS011;49406;51.044;3.766;2023-05-02T15:21:25;3.80;;;2.50;;
63280;SDS011;49406;51.044;3.766;2023-05-02T15:23:59;1.80;;;1.10;;
63280;SDS011;49406;51.044;3.766;2023-05-02T15:26:34;4.00;;;1.50;;
63280;SDS011;49406;51.044;3.766;2023-05-02T15:29:10;2.40;;;1.30;;
63280;SDS011;49406;51.044;3.766;2023-05-02T15:31:45;4.20;;;1.60;;
63280;SDS011;49406;51.044;3.766;2023-05-02T15:34:19;3.20;;;2.60;;
63280;SDS011;49406;51.044;3.766;2023-05-02T15:36:54;0.50;;;0.30;;
63280;SDS011;49406;51.044;3.766;2023-05-02T15:42:04;0.80;;;0.50;;
63280;SDS011;49406;51.044;3.766;2023-05-02T15:44:38;4.80;;;2.10;;
63280;SDS011;49406;51.044;3.766;2023-05-02T15:47:13;2.20;;;2.00;;
63280;SDS011;49406;51.044;3.766;2023-05-02T15:49:47;3.10;;;2.10;;
63280;SDS011;49406;51.044;3.766;2023-05-02T15:52:24;3.60;;;2.00;;
63280;SDS011;49406;51.044;3.766;2023-05-02T15:54:58;4.90;;;2.30;;
63280;SDS011;49406;51.044;3.766;2023-05-02T15:57:33;3.20;;;1.90;;
63280;SDS011;49406;51.044;3.766;2023-05-02T16:00:08;6.50;;;2.50;;
63280;SDS011;49406;51.044;3.766;2023-05-02T16:02:47;11.60;;;2.60;;
63280;SDS011;49406;51.044;3.766;2023-05-02T16:05:21;4.00;;;1.70;;
63280;SDS011;49406;51.044;3.766;2023-05-02T16:07:56;3.80;;;1.70;;
63280;SDS011;49406;51.044;3.766;2023-05-02T16:10:30;1.70;;;1.00;;
63280;SDS011;49406;51.044;3.766;2023-05-02T16:13:06;7.20;;;2.80;;
63280;SDS011;49406;51.044;3.766;2023-05-02T16:15:41;5.70;;;2.30;;
63280;SDS011;49406;51.044;3.766;2023-05-02T16:18:15;2.90;;;1.30;;
63280;SDS011;49406;51.044;3.766;2023-05-02T16:20:49;2.10;;;1.00;;
63280;SDS011;49406;51.044;3.766;2023-05-02T16:23:24;6.50;;;3.20;;
63280;SDS011;49406;51.044;3.766;2023-05-02T16:25:58;2.10;;;1.30;;
63280;SDS011;49406;51.044;3.766;2023-05-02T16:28:33;5.40;;;2.70;;